KMKT/MKT METAR and TAF weather

Enter ICAO airport designator
Station Type Date Time Source
KMKT METAR 2019/02/21 14:56 UTC NOAA

KMKT 211456Z AUTO 26007KT 3SM -SN OVC008 M13/M16 A3011 RMK AO2 SLP221 P0000 60000 T11281156 51034 FZRANO


Station Type Date Time Source
KMKT Decoded METAR 2019/02/21 14:56 UTC NOAA

Mankato, Mankato Regional Airport, MN, United States (KMKT) 44-13N 093-55W
Feb 21, 2019 - 09:56 AM EST / 2019.02.21 1456 UTC
Wind: from the W (260 degrees) at 8 MPH (7 KT):0
Visibility: 3 mile(s):0
Sky conditions: overcast
Weather: light snow
Precipitation last hour: A trace
Temperature: 9.0 F (-12.8 C)
Windchill: -4 F (-20 C):1
Dew Point: 3.9 F (-15.6 C)
Relative Humidity: 79%
Pressure (altimeter): 30.11 in. Hg (1019 hPa)
Pressure tendency: 0.10 inches (3.4 hPa) higher than three hours ago
ob: KMKT 211456Z AUTO 26007KT 3SM -SN OVC008 M13/M16 A3011 RMK AO2 SLP221 P0000 60000 T11281156 51034 FZRANO
cycle: 15

Station Type Date Time Source
KMKT TAF 2019/02/21 15:36 UTC NOAA

TAF
AMD KMKT 211434Z 2115/2212 23008KT 3SM -SN BR OVC007
FM211700 28007KT P6SM SCT250
FM220200 24005KT P6SM BKN100


Example: see airport list